Airfield :
LOGIN :

Register | Disclaimer

   EN    FR    IT 

 










Legend :    VFR   Marginal VFR   IFR   Intensive IFR   Very Intensive IFR
Visi :
Ceiling :
>= 8 km
>= 3000ft
5 to 8 km
1000 to 3000 ft
1500m to 5 km
500 to 1000 ft
800 to 1500m
200 to 500 ft
< 800m
< 200 ft
Symbols :   Thunderstorms  Fog  Heavy snow  Heavy precipitations  Wind > 20 kt
SIGMETs :     Misc.  Thunderstorms  Icing  Turbulence  Mountain Waves  Volcanic Ashes







- Airport Elevation : 584 ft
- Download approach charts


LFPV - Villacoublay Vélizy

CURRENT METAR :
  • 160900Z AUTO 23004KT 200V260 0350 0300 R27/0375N R09/0450N FG VV/// 04/04 Q1012 TEMPO 3000 BR

EXPIRED METARs :
  • 160830Z AUTO 22006KT 0350 0300 R27/0400N R09/0375N FG VV/// 04/04 Q1012 TEMPO 3000 BR
  • 160800Z AUTO 24005KT 210V270 0400 0350 R27/0400N R09/0550N FG VV/// 04/04 Q1011 TEMPO 3000 BR
  • 160730Z AUTO 23009KT 0550 0500 R27/0600N R09/0650N FG VV/// 03/03 Q1011 TEMPO 3000 BR
  • 160700Z AUTO 23007KT 0450 0400 R27/0500N R09/0550N FG VV/// 03/03 Q1011 NOSIG
  • 160630Z AUTO 23008KT 0450 R27/0500N R09/0550N FG VV/// 03/03 Q1011 NOSIG
  • 160600Z AUTO 22009KT 0500 0450 R27/0550N R09/0550N FG VV/// 02/02 Q1011 NOSIG

TAF TAF LFPV
Valid from the 16 at 09:00 until the 17 at 09:00 UTC


160800Z 1609/1709 22005KT 0500 FG VV///
PROB40 1609/1618 3000 BR OVC002
BECMG 1622/1624 26005KT 4000 BR BKN005
BECMG 1700/1703 7000 NSW SCT010
No reported NOTAMs for that airfield.



MET'MAP, your aeronautical weather chart ! - Copyright ORBIFLY December 2007 - Disclaimer

ORBIFLY MET'MAP TEAM :

Programming & Development : Alexandra Zaïnal
Concept & Development : Baudouin d'Aumeries
Co-Development & Prog : Marc-Olivier Méhu
Technical & hardware support : Manuel Goepfert

Contact : metmap@orbifly.com




SOURCES & CREDITS :

   NOAA